sensor_id;sensor_type;location;lat;lon;timestamp;P1;durP1;ratioP1;P2;durP2;ratioP2
3831;SDS011;12460;42.662;23.288;2022-09-21T00:00:28;2.63;;;2.53;;
3831;SDS011;12460;42.662;23.288;2022-09-21T00:15:50;3.00;;;2.80;;
3831;SDS011;12460;42.662;23.288;2022-09-21T00:31:28;2.90;;;2.70;;
3831;SDS011;12460;42.662;23.288;2022-09-21T00:47:11;5.40;;;4.77;;
3831;SDS011;12460;42.662;23.288;2022-09-21T01:02:25;7.00;;;6.30;;
3831;SDS011;12460;42.662;23.288;2022-09-21T01:17:43;7.00;;;6.30;;
3831;SDS011;12460;42.662;23.288;2022-09-21T01:33:26;6.70;;;5.83;;
3831;SDS011;12460;42.662;23.288;2022-09-21T01:48:51;6.07;;;5.53;;
3831;SDS011;12460;42.662;23.288;2022-09-21T02:21:02;4.00;;;3.70;;
3831;SDS011;12460;42.662;23.288;2022-09-21T02:36:49;4.67;;;4.27;;
3831;SDS011;12460;42.662;23.288;2022-09-21T02:52:06;4.70;;;4.17;;
3831;SDS011;12460;42.662;23.288;2022-09-21T03:07:42;5.70;;;4.53;;
3831;SDS011;12460;42.662;23.288;2022-09-21T03:56:07;4.60;;;4.20;;
3831;SDS011;12460;42.662;23.288;2022-09-21T04:11:30;4.53;;;4.20;;
3831;SDS011;12460;42.662;23.288;2022-09-21T04:27:12;5.23;;;4.73;;
3831;SDS011;12460;42.662;23.288;2022-09-21T04:42:38;6.00;;;4.43;;
3831;SDS011;12460;42.662;23.288;2022-09-21T04:57:46;5.23;;;4.30;;
3831;SDS011;12460;42.662;23.288;2022-09-21T05:13:00;4.40;;;4.00;;
3831;SDS011;12460;42.662;23.288;2022-09-21T05:28:10;5.10;;;4.60;;
3831;SDS011;12460;42.662;23.288;2022-09-21T05:43:15;2.87;;;2.67;;
3831;SDS011;12460;42.662;23.288;2022-09-21T06:13:42;2.80;;;2.53;;
3831;SDS011;12460;42.662;23.288;2022-09-21T06:28:45;4.33;;;2.90;;
3831;SDS011;12460;42.662;23.288;2022-09-21T06:43:53;5.40;;;4.00;;
3831;SDS011;12460;42.662;23.288;2022-09-21T06:58:58;3.00;;;2.80;;
3831;SDS011;12460;42.662;23.288;2022-09-21T07:14:02;2.40;;;2.20;;
3831;SDS011;12460;42.662;23.288;2022-09-21T07:29:07;2.50;;;2.30;;
3831;SDS011;12460;42.662;23.288;2022-09-21T07:44:11;2.57;;;2.47;;
3831;SDS011;12460;42.662;23.288;2022-09-21T07:59:15;2.53;;;2.43;;
3831;SDS011;12460;42.662;23.288;2022-09-21T08:14:22;2.43;;;2.27;;
3831;SDS011;12460;42.662;23.288;2022-09-21T08:29:27;2.40;;;2.30;;
3831;SDS011;12460;42.662;23.288;2022-09-21T08:44:34;2.67;;;2.53;;
3831;SDS011;12460;42.662;23.288;2022-09-21T08:59:40;2.70;;;2.50;;
3831;SDS011;12460;42.662;23.288;2022-09-21T09:14:54;2.63;;;2.43;;
3831;SDS011;12460;42.662;23.288;2022-09-21T09:30:22;2.20;;;2.10;;
3831;SDS011;12460;42.662;23.288;2022-09-21T09:45:30;2.43;;;2.33;;
3831;SDS011;12460;42.662;23.288;2022-09-21T10:00:41;2.67;;;2.47;;
3831;SDS011;12460;42.662;23.288;2022-09-21T10:15:56;2.00;;;1.90;;
3831;SDS011;12460;42.662;23.288;2022-09-21T10:31:08;2.27;;;1.87;;
3831;SDS011;12460;42.662;23.288;2022-09-21T10:46:12;1.90;;;1.80;;
3831;SDS011;12460;42.662;23.288;2022-09-21T11:01:20;2.33;;;2.13;;
3831;SDS011;12460;42.662;23.288;2022-09-21T13:03:13;2.27;;;2.17;;
3831;SDS011;12460;42.662;23.288;2022-09-21T13:33:28;2.83;;;2.70;;
3831;SDS011;12460;42.662;23.288;2022-09-21T13:48:32;2.60;;;2.50;;
3831;SDS011;12460;42.662;23.288;2022-09-21T14:03:40;2.63;;;2.47;;
3831;SDS011;12460;42.662;23.288;2022-09-21T14:18:50;3.17;;;2.90;;
3831;SDS011;12460;42.662;23.288;2022-09-21T14:33:56;3.10;;;2.90;;
3831;SDS011;12460;42.662;23.288;2022-09-21T15:19:34;4.70;;;4.30;;
3831;SDS011;12460;42.662;23.288;2022-09-21T15:34:39;3.93;;;3.63;;
3831;SDS011;12460;42.662;23.288;2022-09-21T15:49:43;3.43;;;3.23;;
3831;SDS011;12460;42.662;23.288;2022-09-21T16:04:48;3.10;;;2.90;;
3831;SDS011;12460;42.662;23.288;2022-09-21T16:35:36;4.10;;;3.70;;
3831;SDS011;12460;42.662;23.288;2022-09-21T16:50:35;3.90;;;3.53;;
3831;SDS011;12460;42.662;23.288;2022-09-21T17:05:40;6.67;;;5.27;;
3831;SDS011;12460;42.662;23.288;2022-09-21T17:36:24;7.10;;;6.40;;
3831;SDS011;12460;42.662;23.288;2022-09-21T17:51:28;6.00;;;5.40;;
3831;SDS011;12460;42.662;23.288;2022-09-21T18:06:59;6.30;;;5.80;;
3831;SDS011;12460;42.662;23.288;2022-09-21T18:37:43;6.93;;;6.30;;
3831;SDS011;12460;42.662;23.288;2022-09-21T19:08:15;8.43;;;7.60;;
3831;SDS011;12460;42.662;23.288;2022-09-21T19:23:27;7.03;;;6.33;;
3831;SDS011;12460;42.662;23.288;2022-09-21T19:38:34;7.93;;;7.13;;
3831;SDS011;12460;42.662;23.288;2022-09-21T19:53:38;7.67;;;6.97;;
3831;SDS011;12460;42.662;23.288;2022-09-21T20:24:17;8.10;;;7.30;;
3831;SDS011;12460;42.662;23.288;2022-09-21T20:39:22;7.00;;;6.30;;
3831;SDS011;12460;42.662;23.288;2022-09-21T20:54:28;6.27;;;5.67;;
3831;SDS011;12460;42.662;23.288;2022-09-21T21:09:32;6.60;;;6.00;;
3831;SDS011;12460;42.662;23.288;2022-09-21T21:24:43;7.60;;;5.30;;
3831;SDS011;12460;42.662;23.288;2022-09-21T21:39:49;6.40;;;5.80;;
3831;SDS011;12460;42.662;23.288;2022-09-21T21:54:56;5.20;;;4.80;;
3831;SDS011;12460;42.662;23.288;2022-09-21T22:10:01;5.50;;;5.00;;
3831;SDS011;12460;42.662;23.288;2022-09-21T22:25:09;5.90;;;5.40;;
3831;SDS011;12460;42.662;23.288;2022-09-21T22:40:15;5.57;;;5.07;;
3831;SDS011;12460;42.662;23.288;2022-09-21T22:55:20;5.10;;;4.70;;
3831;SDS011;12460;42.662;23.288;2022-09-21T23:10:25;5.47;;;5.07;;
3831;SDS011;12460;42.662;23.288;2022-09-21T23:25:29;5.27;;;4.87;;
3831;SDS011;12460;42.662;23.288;2022-09-21T23:40:33;5.90;;;5.40;;
3831;SDS011;12460;42.662;23.288;2022-09-21T23:55:37;5.00;;;4.63;;
